Portada
METAR-TAF:

METAR-TAF

Aeroports :

Yaoundé, Camerun

latitud: 03-50N, longitud: 011-31E, altitud: 751 m

Observació

L'informe es va fer fa 1 hora i 21 minuts, a les 15:00 UTC
Vent 5 kt del Oest/Sud-Oest, variant entre Sud/Sud-Oest i Oest/Nord-Oest
Temperatura 30°C
Humitat 59%
Pressió 1013 hPa
Visibilitat: 6000 m
Cel ennuvolat a una alçada de 2000 ft

METAR: FKYS 281500Z 24005KT 200V290 6000 BKN020 30/21 Q1013 NOSIG

Hora: 17:21 (16:21 UTC)

Pronòstic

L'informe es va fer fa 5 hores i 21 minuts, a les 11:00 UTC
Pronòstic vàlid del 28 a les 12 UTC al 29 a les 12 UTC
Vent 5 kt amb direcció variable
Visibilitat: 6000 m
Núvols disperses a una alçada de 2000 ft
Temporalment
l' 28 a les 15 UTC al 28 a les 19 UTC
Visibilitat: 4000 m
calitja
Temporalment
l' 29 a les 02 UTC al 29 a les 06 UTC
Visibilitat: 2000 m
Cel ennuvolat a una alçada de 600 ft
boirina

TAF: FKYS 281100Z 2812/2912 VRB05KT 6000 SCT020 TEMPO 2815/2819 4000 HZ TEMPO 2902/2906 2000 BR BKN006

Observacions i pronòstics meteorològics de més de 4000 aeroports (METAR i TAF).

Les estacions disponibles són els punts grocs i vermells al mapa.

Posi el ratolí al punt desitjat per veure el nom de l'estació.

Feu clic per veure les observacions i els pronòstics meteorològics.

Per canviar el mapa: feu clic els botons verds amb una creu de color negre per apropar; al botó verd amb un guió per allunyar la imatge; o en les fletxes verdes per a mapes adjacents.


METAR-TAF: